sensor_id;sensor_type;location;lat;lon;timestamp;pressure;altitude;pressure_sealevel;temperature;humidity
39769;BME280;38939;47.824;14.642;2022-10-16T05:42:08;97222.47;;;12.18;97.13
39769;BME280;38939;47.824;14.642;2022-10-16T05:43:10;97222.88;;;12.15;97.24
39769;BME280;38939;47.824;14.642;2022-10-16T05:44:12;97222.28;;;12.13;97.21
39769;BME280;38939;47.824;14.642;2022-10-16T05:45:14;97227.31;;;12.15;97.37
39769;BME280;38939;47.824;14.642;2022-10-16T05:46:17;97223.28;;;12.12;97.46
39769;BME280;38939;47.824;14.642;2022-10-16T05:47:20;97228.91;;;12.09;98.27
39769;BME280;38939;47.824;14.642;2022-10-16T05:48:23;97217.22;;;12.12;98.16
39769;BME280;38939;47.824;14.642;2022-10-16T05:49:25;97215.22;;;12.14;97.73
39769;BME280;38939;47.824;14.642;2022-10-16T05:50:27;97222.47;;;12.12;98.36
39769;BME280;38939;47.824;14.642;2022-10-16T05:51:29;97219.66;;;12.13;98.44
39769;BME280;38939;47.824;14.642;2022-10-16T05:52:32;97222.88;;;12.15;97.99
39769;BME280;38939;47.824;14.642;2022-10-16T05:53:35;97217.25;;;12.18;97.92
39769;BME280;38939;47.824;14.642;2022-10-16T05:54:37;97223.06;;;12.20;98.50
39769;BME280;38939;47.824;14.642;2022-10-16T05:55:39;97221.44;;;12.19;98.01
39769;BME280;38939;47.824;14.642;2022-10-16T05:56:40;97225.28;;;12.17;98.27
39769;BME280;38939;47.824;14.642;2022-10-16T05:57:42;97226.09;;;12.17;98.27
39769;BME280;38939;47.824;14.642;2022-10-16T05:58:44;97234.16;;;12.16;97.99
39769;BME280;38939;47.824;14.642;2022-10-16T05:59:46;97228.69;;;12.17;98.02
39769;BME280;38939;47.824;14.642;2022-10-16T06:00:55;97232.94;;;12.18;98.06
39769;BME280;38939;47.824;14.642;2022-10-16T06:01:58;97225.50;;;12.22;98.37
39769;BME280;38939;47.824;14.642;2022-10-16T06:03:00;97230.31;;;12.25;98.27
39769;BME280;38939;47.824;14.642;2022-10-16T06:04:02;97236.16;;;12.20;97.30
39769;BME280;38939;47.824;14.642;2022-10-16T06:05:04;97235.56;;;12.18;97.77
39769;BME280;38939;47.824;14.642;2022-10-16T06:06:13;97237.56;;;12.16;97.89
39769;BME280;38939;47.824;14.642;2022-10-16T06:07:15;97243.59;;;12.17;97.58
39769;BME280;38939;47.824;14.642;2022-10-16T06:08:18;97238.97;;;12.19;97.42
39769;BME280;38939;47.824;14.642;2022-10-16T06:09:20;97242.97;;;12.21;97.82
39769;BME280;38939;47.824;14.642;2022-10-16T06:10:22;97241.38;;;12.20;97.97
39769;BME280;38939;47.824;14.642;2022-10-16T06:11:25;97244.00;;;12.20;97.55
39769;BME280;38939;47.824;14.642;2022-10-16T06:12:27;97246.03;;;12.18;97.60
39769;BME280;38939;47.824;14.642;2022-10-16T06:13:29;97246.63;;;12.20;97.89
39769;BME280;38939;47.824;14.642;2022-10-16T06:14:30;97246.63;;;12.20;97.74
39769;BME280;38939;47.824;14.642;2022-10-16T06:15:32;97252.84;;;12.19;98.44
39769;BME280;38939;47.824;14.642;2022-10-16T06:16:35;97251.44;;;12.17;97.92
39769;BME280;38939;47.824;14.642;2022-10-16T06:17:37;97255.47;;;12.19;97.96
39769;BME280;38939;47.824;14.642;2022-10-16T06:18:39;97247.41;;;12.21;98.50
39769;BME280;38939;47.824;14.642;2022-10-16T06:19:41;97254.28;;;12.22;98.54
39769;BME280;38939;47.824;14.642;2022-10-16T06:20:43;97246.63;;;12.20;97.99
39769;BME280;38939;47.824;14.642;2022-10-16T06:21:44;97251.25;;;12.18;97.79
39769;BME280;38939;47.824;14.642;2022-10-16T06:22:46;97253.44;;;12.21;97.82
39769;BME280;38939;47.824;14.642;2022-10-16T06:23:48;97255.25;;;12.21;97.80
39769;BME280;38939;47.824;14.642;2022-10-16T06:24:50;97252.44;;;12.23;97.77
39769;BME280;38939;47.824;14.642;2022-10-16T06:25:52;97249.41;;;12.26;98.23
39769;BME280;38939;47.824;14.642;2022-10-16T06:26:54;97256.06;;;12.28;98.30
39769;BME280;38939;47.824;14.642;2022-10-16T06:27:55;97261.09;;;12.30;97.69
39769;BME280;38939;47.824;14.642;2022-10-16T06:28:58;97263.50;;;12.31;97.54
39769;BME280;38939;47.824;14.642;2022-10-16T06:30:00;97262.50;;;12.32;97.30
39769;BME280;38939;47.824;14.642;2022-10-16T06:31:03;97258.06;;;12.33;97.74
39769;BME280;38939;47.824;14.642;2022-10-16T06:32:08;97262.28;;;12.34;97.49
39769;BME280;38939;47.824;14.642;2022-10-16T06:33:11;97259.66;;;12.34;97.59
39769;BME280;38939;47.824;14.642;2022-10-16T06:34:13;97257.06;;;12.34;97.11
39769;BME280;38939;47.824;14.642;2022-10-16T06:35:15;97259.50;;;12.29;97.58
39769;BME280;38939;47.824;14.642;2022-10-16T06:36:17;97261.31;;;12.28;97.83
39769;BME280;38939;47.824;14.642;2022-10-16T06:37:19;97262.09;;;12.29;97.91
39769;BME280;38939;47.824;14.642;2022-10-16T06:38:21;97257.88;;;12.28;97.88
39769;BME280;38939;47.824;14.642;2022-10-16T06:39:23;97265.50;;;12.29;97.41
39769;BME280;38939;47.824;14.642;2022-10-16T06:40:25;97265.31;;;12.31;97.71
39769;BME280;38939;47.824;14.642;2022-10-16T06:41:27;97256.06;;;12.28;97.23
39769;BME280;38939;47.824;14.642;2022-10-16T06:42:29;97262.72;;;12.31;97.97
39769;BME280;38939;47.824;14.642;2022-10-16T06:43:31;97265.13;;;12.32;97.28
39769;BME280;38939;47.824;14.642;2022-10-16T06:44:37;97269.53;;;12.32;97.85
39769;BME280;38939;47.824;14.642;2022-10-16T06:45:39;97269.53;;;12.32;98.12
39769;BME280;38939;47.824;14.642;2022-10-16T06:46:40;97273.78;;;12.33;97.73
39769;BME280;38939;47.824;14.642;2022-10-16T06:47:42;97272.75;;;12.34;97.60
39769;BME280;38939;47.824;14.642;2022-10-16T06:48:44;97272.75;;;12.34;97.46
39769;BME280;38939;47.824;14.642;2022-10-16T06:49:46;97275.78;;;12.37;97.45
39769;BME280;38939;47.824;14.642;2022-10-16T06:50:56;97279.41;;;12.36;97.56
39769;BME280;38939;47.824;14.642;2022-10-16T06:51:58;97277.00;;;12.35;97.28
39769;BME280;38939;47.824;14.642;2022-10-16T06:53:00;97275.97;;;12.36;97.14
39769;BME280;38939;47.824;14.642;2022-10-16T06:54:02;97286.44;;;12.36;97.56
39769;BME280;38939;47.824;14.642;2022-10-16T06:55:05;97286.44;;;12.36;97.33
39769;BME280;38939;47.824;14.642;2022-10-16T06:56:08;97290.06;;;12.35;97.56
39769;BME280;38939;47.824;14.642;2022-10-16T06:57:10;97282.03;;;12.36;97.42
39769;BME280;38939;47.824;14.642;2022-10-16T06:58:12;97281.81;;;12.38;97.22
39769;BME280;38939;47.824;14.642;2022-10-16T06:59:14;97290.25;;;12.40;97.52
39769;BME280;38939;47.824;14.642;2022-10-16T07:00:15;97286.84;;;12.39;97.25
39769;BME280;38939;47.824;14.642;2022-10-16T07:01:18;97291.28;;;12.39;97.59
39769;BME280;38939;47.824;14.642;2022-10-16T07:02:20;97293.09;;;12.38;97.42
39769;BME280;38939;47.824;14.642;2022-10-16T07:03:22;97292.88;;;12.40;97.14
39769;BME280;38939;47.824;14.642;2022-10-16T07:04:24;97294.50;;;12.41;97.33
39769;BME280;38939;47.824;14.642;2022-10-16T07:05:25;97291.09;;;12.40;97.32
39769;BME280;38939;47.824;14.642;2022-10-16T07:06:30;97286.63;;;12.41;97.51
39769;BME280;38939;47.824;14.642;2022-10-16T07:07:32;97295.28;;;12.41;97.84
39769;BME280;38939;47.824;14.642;2022-10-16T07:08:34;97295.28;;;12.41;97.72
39769;BME280;38939;47.824;14.642;2022-10-16T07:09:36;97290.66;;;12.44;97.83
39769;BME280;38939;47.824;14.642;2022-10-16T07:10:38;97296.50;;;12.46;97.79
39769;BME280;38939;47.824;14.642;2022-10-16T07:11:40;97296.28;;;12.47;97.16
39769;BME280;38939;47.824;14.642;2022-10-16T07:12:42;97299.72;;;12.48;97.13
39769;BME280;38939;47.824;14.642;2022-10-16T07:13:47;97296.09;;;12.49;97.01
39769;BME280;38939;47.824;14.642;2022-10-16T07:14:55;97292.06;;;12.46;97.43
39769;BME280;38939;47.824;14.642;2022-10-16T07:15:57;97299.72;;;12.48;97.20
39769;BME280;38939;47.824;14.642;2022-10-16T07:16:59;97300.53;;;12.48;97.08
39769;BME280;38939;47.824;14.642;2022-10-16T07:18:01;97305.78;;;12.48;97.44
39769;BME280;38939;47.824;14.642;2022-10-16T07:19:03;97303.53;;;12.52;97.42
39769;BME280;38939;47.824;14.642;2022-10-16T07:20:05;97295.47;;;12.53;96.93
39769;BME280;38939;47.824;14.642;2022-10-16T07:21:08;97303.31;;;12.53;96.92
39769;BME280;38939;47.824;14.642;2022-10-16T07:22:10;97308.16;;;12.56;97.14
39769;BME280;38939;47.824;14.642;2022-10-16T07:23:11;97306.75;;;12.60;97.00
39769;BME280;38939;47.824;14.642;2022-10-16T07:24:14;97292.25;;;12.65;97.56
39769;BME280;38939;47.824;14.642;2022-10-16T07:25:17;97302.69;;;12.71;97.29
39769;BME280;38939;47.824;14.642;2022-10-16T07:26:19;97302.47;;;12.79;96.83
39769;BME280;38939;47.824;14.642;2022-10-16T07:27:21;97306.09;;;12.85;96.75
39769;BME280;38939;47.824;14.642;2022-10-16T07:28:25;97298.78;;;12.94;97.27
39769;BME280;38939;47.824;14.642;2022-10-16T07:29:27;97308.03;;;13.03;97.46
39769;BME280;38939;47.824;14.642;2022-10-16T07:30:29;97314.47;;;13.07;96.85
39769;BME280;38939;47.824;14.642;2022-10-16T07:31:31;97308.81;;;13.10;96.41
39769;BME280;38939;47.824;14.642;2022-10-16T07:32:33;97301.94;;;13.16;96.28
39769;BME280;38939;47.824;14.642;2022-10-16T07:33:35;97306.34;;;13.22;95.62
39769;BME280;38939;47.824;14.642;2022-10-16T07:34:37;97311.97;;;13.26;95.81
39769;BME280;38939;47.824;14.642;2022-10-16T07:35:46;97310.97;;;13.27;95.38
39769;BME280;38939;47.824;14.642;2022-10-16T07:36:49;97309.56;;;13.31;95.10
39769;BME280;38939;47.824;14.642;2022-10-16T07:37:51;97303.13;;;13.33;95.04
39769;BME280;38939;47.824;14.642;2022-10-16T07:38:53;97311.56;;;13.35;94.78
39769;BME280;38939;47.824;14.642;2022-10-16T07:40:00;97307.28;;;13.41;94.60
39769;BME280;38939;47.824;14.642;2022-10-16T07:41:03;97311.91;;;13.46;94.83
39769;BME280;38939;47.824;14.642;2022-10-16T07:42:05;97314.09;;;13.49;94.67
39769;BME280;38939;47.824;14.642;2022-10-16T07:43:07;97316.31;;;13.52;94.67
39769;BME280;38939;47.824;14.642;2022-10-16T07:44:09;97308.47;;;13.52;94.21
39769;BME280;38939;47.824;14.642;2022-10-16T07:45:11;97309.06;;;13.54;93.97
39769;BME280;38939;47.824;14.642;2022-10-16T07:46:13;97308.41;;;13.58;93.69
39769;BME280;38939;47.824;14.642;2022-10-16T07:47:16;97311.81;;;13.66;94.04
39769;BME280;38939;47.824;14.642;2022-10-16T07:48:18;97309.56;;;13.69;93.56
39769;BME280;38939;47.824;14.642;2022-10-16T07:49:20;97319.38;;;13.80;93.72
39769;BME280;38939;47.824;14.642;2022-10-16T07:50:22;97319.72;;;13.91;93.05
39769;BME280;38939;47.824;14.642;2022-10-16T07:51:25;97318.25;;;13.95;92.26
39769;BME280;38939;47.824;14.642;2022-10-16T07:52:27;97321.69;;;13.95;92.12
39769;BME280;38939;47.824;14.642;2022-10-16T07:53:29;97321.06;;;14.00;92.34
39769;BME280;38939;47.824;14.642;2022-10-16T07:54:31;97311.75;;;14.04;92.48
39769;BME280;38939;47.824;14.642;2022-10-16T07:55:33;97312.94;;;14.08;92.38
39769;BME280;38939;47.824;14.642;2022-10-16T07:56:35;97317.59;;;14.06;91.16
39769;BME280;38939;47.824;14.642;2022-10-16T07:57:43;97317.16;;;14.09;91.46
39769;BME280;38939;47.824;14.642;2022-10-16T07:58:45;97312.50;;;14.11;91.02
39769;BME280;38939;47.824;14.642;2022-10-16T07:59:47;97318.56;;;14.12;90.91
39769;BME280;38939;47.824;14.642;2022-10-16T08:00:49;97317.53;;;14.13;91.02
39769;BME280;38939;47.824;14.642;2022-10-16T08:01:51;97310.25;;;14.15;91.13
39769;BME280;38939;47.824;14.642;2022-10-16T08:02:53;97319.50;;;14.17;91.23
39769;BME280;38939;47.824;14.642;2022-10-16T08:03:54;97319.69;;;14.23;91.23
39769;BME280;38939;47.824;14.642;2022-10-16T08:04:56;97314.84;;;14.19;90.80
39769;BME280;38939;47.824;14.642;2022-10-16T08:05:59;97320.47;;;14.23;91.56
39769;BME280;38939;47.824;14.642;2022-10-16T08:07:01;97318.03;;;14.28;91.48
39769;BME280;38939;47.824;14.642;2022-10-16T08:08:03;97321.25;;;14.30;91.17
39769;BME280;38939;47.824;14.642;2022-10-16T08:09:05;97325.66;;;14.30;90.83
39769;BME280;38939;47.824;14.642;2022-10-16T08:10:11;97324.06;;;14.29;90.42
39769;BME280;38939;47.824;14.642;2022-10-16T08:11:17;97316.41;;;14.27;90.14
39769;BME280;38939;47.824;14.642;2022-10-16T08:12:19;97318.63;;;14.30;90.28
39769;BME280;38939;47.824;14.642;2022-10-16T08:13:21;97320.22;;;14.31;90.32
39769;BME280;38939;47.824;14.642;2022-10-16T08:14:23;97317.97;;;14.35;90.38
39769;BME280;38939;47.824;14.642;2022-10-16T08:15:24;97317.31;;;14.39;90.25
39769;BME280;38939;47.824;14.642;2022-10-16T08:16:26;97310.81;;;14.42;90.54
39769;BME280;38939;47.824;14.642;2022-10-16T08:17:28;97318.28;;;14.45;90.24
39769;BME280;38939;47.824;14.642;2022-10-16T08:18:30;97319.44;;;14.49;90.45
39769;BME280;38939;47.824;14.642;2022-10-16T08:19:32;97321.66;;;14.52;90.17
39769;BME280;38939;47.824;14.642;2022-10-16T08:20:36;97318.00;;;14.53;89.51
39769;BME280;38939;47.824;14.642;2022-10-16T08:21:38;97321.81;;;14.57;89.66
39769;BME280;38939;47.824;14.642;2022-10-16T08:22:39;97318.78;;;14.60;89.58
39769;BME280;38939;47.824;14.642;2022-10-16T08:23:41;97317.91;;;14.67;89.94
39769;BME280;38939;47.824;14.642;2022-10-16T08:24:43;97326.78;;;14.66;89.53
39769;BME280;38939;47.824;14.642;2022-10-16T08:25:45;97326.97;;;14.71;89.55
39769;BME280;38939;47.824;14.642;2022-10-16T08:26:47;97331.34;;;14.77;89.82
39769;BME280;38939;47.824;14.642;2022-10-16T08:27:49;97319.00;;;14.77;88.94
39769;BME280;38939;47.824;14.642;2022-10-16T08:28:51;97324.63;;;14.81;89.02
39769;BME280;38939;47.824;14.642;2022-10-16T08:29:53;97314.13;;;14.81;88.64
39769;BME280;38939;47.824;14.642;2022-10-16T08:30:55;97325.22;;;14.83;88.47
39769;BME280;38939;47.824;14.642;2022-10-16T08:31:58;97325.34;;;14.88;88.69
39769;BME280;38939;47.824;14.642;2022-10-16T08:33:00;97319.66;;;14.91;88.37
39769;BME280;38939;47.824;14.642;2022-10-16T08:34:03;97323.88;;;14.92;88.17
39769;BME280;38939;47.824;14.642;2022-10-16T08:35:04;97316.97;;;14.98;88.87
39769;BME280;38939;47.824;14.642;2022-10-16T08:36:06;97305.78;;;15.03;88.18
39769;BME280;38939;47.824;14.642;2022-10-16T08:37:08;97309.56;;;15.07;88.76
39769;BME280;38939;47.824;14.642;2022-10-16T08:38:12;97319.44;;;15.11;87.78
39769;BME280;38939;47.824;14.642;2022-10-16T08:39:15;97306.09;;;15.13;88.06
39769;BME280;38939;47.824;14.642;2022-10-16T08:40:22;97314.91;;;15.18;87.94
39769;BME280;38939;47.824;14.642;2022-10-16T08:41:54;97310.00;;;15.22;87.36
39769;BME280;38939;47.824;14.642;2022-10-16T08:45:15;97310.75;;;15.29;86.72
39769;BME280;38939;47.824;14.642;2022-10-16T08:47:25;97314.75;;;15.32;86.69
39769;BME280;38939;47.824;14.642;2022-10-16T08:48:35;97316.69;;;15.36;86.92
39769;BME280;38939;47.824;14.642;2022-10-16T08:49:41;97314.22;;;15.42;86.68
39769;BME280;38939;47.824;14.642;2022-10-16T08:50:43;97310.91;;;15.46;86.83
39769;BME280;38939;47.824;14.642;2022-10-16T08:51:46;97324.28;;;15.45;85.96
39769;BME280;38939;47.824;14.642;2022-10-16T08:52:50;97315.38;;;15.46;86.09
39769;BME280;38939;47.824;14.642;2022-10-16T08:53:56;97312.28;;;15.49;86.18
39769;BME280;38939;47.824;14.642;2022-10-16T08:54:59;97310.03;;;15.52;86.20
39769;BME280;38939;47.824;14.642;2022-10-16T08:56:01;97305.91;;;15.56;86.13
39769;BME280;38939;47.824;14.642;2022-10-16T08:57:09;97314.38;;;15.58;85.58
39769;BME280;38939;47.824;14.642;2022-10-16T08:58:17;97318.41;;;15.61;85.88
39769;BME280;38939;47.824;14.642;2022-10-16T08:59:19;97313.84;;;15.68;86.40
39769;BME280;38939;47.824;14.642;2022-10-16T09:00:21;97323.72;;;15.73;86.49
39769;BME280;38939;47.824;14.642;2022-10-16T09:01:24;97317.00;;;15.77;86.34
39769;BME280;38939;47.824;14.642;2022-10-16T09:02:30;97322.63;;;15.80;86.15
39769;BME280;38939;47.824;14.642;2022-10-16T09:05:38;97318.97;;;15.82;84.44
39769;BME280;38939;47.824;14.642;2022-10-16T09:08:24;97322.19;;;15.84;84.75
39769;BME280;38939;47.824;14.642;2022-10-16T09:11:57;97304.13;;;15.99;84.84
39769;BME280;38939;47.824;14.642;2022-10-16T09:13:10;97320.97;;;16.10;85.07
39769;BME280;38939;47.824;14.642;2022-10-16T09:14:22;97310.13;;;16.18;84.31
39769;BME280;38939;47.824;14.642;2022-10-16T09:15:35;97300.03;;;16.27;84.74
39769;BME280;38939;47.824;14.642;2022-10-16T09:16:46;97306.34;;;16.37;84.25
39769;BME280;38939;47.824;14.642;2022-10-16T09:17:52;97308.88;;;16.44;83.08
39769;BME280;38939;47.824;14.642;2022-10-16T09:20:16;97315.59;;;16.64;83.13
39769;BME280;38939;47.824;14.642;2022-10-16T09:21:29;97301.75;;;16.68;82.37
39769;BME280;38939;47.824;14.642;2022-10-16T09:22:31;97308.03;;;16.79;82.38
39769;BME280;38939;47.824;14.642;2022-10-16T09:23:36;97309.09;;;16.90;82.46
39769;BME280;38939;47.824;14.642;2022-10-16T09:24:39;97302.53;;;16.92;81.93
39769;BME280;38939;47.824;14.642;2022-10-16T09:25:43;97301.97;;;16.90;81.13
39769;BME280;38939;47.824;14.642;2022-10-16T09:26:46;97297.25;;;16.92;80.79
39769;BME280;38939;47.824;14.642;2022-10-16T09:27:48;97300.94;;;16.91;81.20
39769;BME280;38939;47.824;14.642;2022-10-16T09:28:53;97302.09;;;16.95;80.68
39769;BME280;38939;47.824;14.642;2022-10-16T09:29:55;97293.59;;;16.93;79.86
39769;BME280;38939;47.824;14.642;2022-10-16T09:31:00;97295.69;;;16.91;80.09
39769;BME280;38939;47.824;14.642;2022-10-16T09:32:12;97297.53;;;16.91;80.82
39769;BME280;38939;47.824;14.642;2022-10-16T09:33:14;97298.31;;;16.91;81.51
39769;BME280;38939;47.824;14.642;2022-10-16T09:35:21;97302.53;;;16.92;81.01
39769;BME280;38939;47.824;14.642;2022-10-16T09:36:24;97300.47;;;16.94;81.40
39769;BME280;38939;47.824;14.642;2022-10-16T09:37:27;97303.09;;;16.94;81.26
39769;BME280;38939;47.824;14.642;2022-10-16T09:38:30;97303.66;;;16.96;80.89
39769;BME280;38939;47.824;14.642;2022-10-16T09:39:43;97297.94;;;16.99;80.42
39769;BME280;38939;47.824;14.642;2022-10-16T09:40:45;97304.34;;;17.04;80.51
39769;BME280;38939;47.824;14.642;2022-10-16T09:41:52;97305.50;;;17.08;80.98
39769;BME280;38939;47.824;14.642;2022-10-16T09:43:41;97304.22;;;17.10;80.43
39769;BME280;38939;47.824;14.642;2022-10-16T09:44:25;97302.25;;;17.17;80.67
39769;BME280;38939;47.824;14.642;2022-10-16T09:45:29;97307.31;;;17.19;79.44
39769;BME280;38939;47.824;14.642;2022-10-16T09:46:31;97300.97;;;17.20;79.35
39769;BME280;38939;47.824;14.642;2022-10-16T09:47:35;97304.97;;;17.23;80.06
39769;BME280;38939;47.824;14.642;2022-10-16T09:48:44;97305.56;;;17.25;79.63
39769;BME280;38939;47.824;14.642;2022-10-16T09:51:01;97305.44;;;17.31;79.25
39769;BME280;38939;47.824;14.642;2022-10-16T09:52:13;97301.28;;;17.35;79.87
39769;BME280;38939;47.824;14.642;2022-10-16T09:53:16;97300.00;;;17.38;79.38
39769;BME280;38939;47.824;14.642;2022-10-16T09:54:20;97306.66;;;17.40;80.24
39769;BME280;38939;47.824;14.642;2022-10-16T09:55:22;97302.19;;;17.41;79.82
39769;BME280;38939;47.824;14.642;2022-10-16T09:56:27;97308.81;;;17.44;79.11
39769;BME280;38939;47.824;14.642;2022-10-16T09:57:30;97311.81;;;17.47;78.91
39769;BME280;38939;47.824;14.642;2022-10-16T09:58:32;97307.88;;;17.50;77.46
39769;BME280;38939;47.824;14.642;2022-10-16T09:59:44;97304.53;;;17.54;78.00
39769;BME280;38939;47.824;14.642;2022-10-16T10:00:53;97311.72;;;17.59;77.92
39769;BME280;38939;47.824;14.642;2022-10-16T10:01:55;97304.94;;;17.63;77.76
39769;BME280;38939;47.824;14.642;2022-10-16T10:02:58;97302.75;;;17.72;78.51
39769;BME280;38939;47.824;14.642;2022-10-16T10:03:59;97301.88;;;17.83;77.59
39769;BME280;38939;47.824;14.642;2022-10-16T10:05:02;97299.19;;;17.95;76.43
39769;BME280;38939;47.824;14.642;2022-10-16T10:06:29;97304.16;;;18.08;76.92
39769;BME280;38939;47.824;14.642;2022-10-16T10:07:30;97301.28;;;18.27;77.19
39769;BME280;38939;47.824;14.642;2022-10-16T10:08:35;97305.69;;;18.38;76.17
39769;BME280;38939;47.824;14.642;2022-10-16T10:09:37;97297.06;;;18.48;75.36
39769;BME280;38939;47.824;14.642;2022-10-16T10:10:41;97297.50;;;18.56;75.31
39769;BME280;38939;47.824;14.642;2022-10-16T10:12:45;97303.53;;;18.74;75.56
39769;BME280;38939;47.824;14.642;2022-10-16T10:13:47;97306.31;;;18.84;74.21
39769;BME280;38939;47.824;14.642;2022-10-16T10:14:50;97297.97;;;18.92;72.94
39769;BME280;38939;47.824;14.642;2022-10-16T10:15:53;97294.09;;;19.00;73.06
39769;BME280;38939;47.824;14.642;2022-10-16T10:17:07;97292.31;;;19.06;71.98
39769;BME280;38939;47.824;14.642;2022-10-16T10:18:17;97292.69;;;19.14;71.77
39769;BME280;38939;47.824;14.642;2022-10-16T10:19:21;97289.88;;;19.21;71.92
39769;BME280;38939;47.824;14.642;2022-10-16T10:20:31;97284.13;;;19.29;73.16
39769;BME280;38939;47.824;14.642;2022-10-16T10:21:37;97284.47;;;19.38;71.03
39769;BME280;38939;47.824;14.642;2022-10-16T10:22:40;97287.47;;;19.47;71.03
39769;BME280;38939;47.824;14.642;2022-10-16T10:23:54;97288.56;;;19.51;70.77
39769;BME280;38939;47.824;14.642;2022-10-16T10:26:10;97289.28;;;19.68;70.52
39769;BME280;38939;47.824;14.642;2022-10-16T10:27:17;97285.09;;;19.72;69.41
39769;BME280;38939;47.824;14.642;2022-10-16T10:29:45;97283.16;;;19.90;71.53
39769;BME280;38939;47.824;14.642;2022-10-16T10:35:17;97278.56;;;20.12;68.95
39769;BME280;38939;47.824;14.642;2022-10-16T10:36:35;97280.44;;;20.17;70.01
39769;BME280;38939;47.824;14.642;2022-10-16T10:39:43;97277.59;;;20.29;69.66
39769;BME280;38939;47.824;14.642;2022-10-16T10:40:52;97277.38;;;20.35;69.16
39769;BME280;38939;47.824;14.642;2022-10-16T10:45:52;97261.66;;;20.66;67.98
39769;BME280;38939;47.824;14.642;2022-10-16T10:46:57;97264.91;;;20.73;67.54
39769;BME280;38939;47.824;14.642;2022-10-16T10:50:50;97264.97;;;20.89;66.75
39769;BME280;38939;47.824;14.642;2022-10-16T10:54:18;97253.91;;;21.12;68.54
39769;BME280;38939;47.824;14.642;2022-10-16T10:55:37;97252.59;;;21.15;66.83
39769;BME280;38939;47.824;14.642;2022-10-16T10:57:59;97257.69;;;21.32;66.76
39769;BME280;38939;47.824;14.642;2022-10-16T10:59:08;97256.91;;;21.42;66.39
39769;BME280;38939;47.824;14.642;2022-10-16T11:01:48;97257.50;;;21.54;65.21
39769;BME280;38939;47.824;14.642;2022-10-16T11:02:59;97254.56;;;21.55;64.70
39769;BME280;38939;47.824;14.642;2022-10-16T11:04:10;97247.94;;;21.58;65.64
39769;BME280;38939;47.824;14.642;2022-10-16T11:06:32;97256.16;;;21.67;64.18
39769;BME280;38939;47.824;14.642;2022-10-16T11:09:14;97258.06;;;21.82;65.46
39769;BME280;38939;47.824;14.642;2022-10-16T11:10:20;97255.91;;;21.89;64.66
39769;BME280;38939;47.824;14.642;2022-10-16T11:11:26;97259.38;;;21.94;65.25
39769;BME280;38939;47.824;14.642;2022-10-16T11:12:33;97259.91;;;22.02;65.70
39769;BME280;38939;47.824;14.642;2022-10-16T11:13:38;97250.06;;;22.02;63.33
39769;BME280;38939;47.824;14.642;2022-10-16T11:14:50;97253.53;;;22.08;64.67
39769;BME280;38939;47.824;14.642;2022-10-16T11:15:58;97265.22;;;22.12;64.96
39769;BME280;38939;47.824;14.642;2022-10-16T11:17:02;97256.97;;;22.13;65.10
39769;BME280;38939;47.824;14.642;2022-10-16T11:18:08;97258.81;;;22.23;66.02
39769;BME280;38939;47.824;14.642;2022-10-16T11:20:42;97256.72;;;22.30;64.83
39769;BME280;38939;47.824;14.642;2022-10-16T11:21:49;97253.25;;;22.35;65.02
39769;BME280;38939;47.824;14.642;2022-10-16T11:22:58;97256.97;;;22.39;62.76
39769;BME280;38939;47.824;14.642;2022-10-16T11:24:04;97252.69;;;22.43;63.02
39769;BME280;38939;47.824;14.642;2022-10-16T11:25:16;97246.03;;;22.51;63.94
39769;BME280;38939;47.824;14.642;2022-10-16T11:26:21;97251.84;;;22.58;63.52
39769;BME280;38939;47.824;14.642;2022-10-16T11:28:39;97261.41;;;22.69;63.65
39769;BME280;38939;47.824;14.642;2022-10-16T11:29:46;97246.53;;;22.68;60.08
39769;BME280;38939;47.824;14.642;2022-10-16T11:30:52;97246.75;;;22.72;62.71
39769;BME280;38939;47.824;14.642;2022-10-16T11:32:06;97249.16;;;22.73;62.70
39769;BME280;38939;47.824;14.642;2022-10-16T11:33:20;97238.75;;;22.77;62.42
39769;BME280;38939;47.824;14.642;2022-10-16T11:34:28;97246.47;;;22.79;64.24
39769;BME280;38939;47.824;14.642;2022-10-16T11:37:31;97240.88;;;22.80;59.72
39769;BME280;38939;47.824;14.642;2022-10-16T11:38:21;97249.41;;;22.77;58.32
39769;BME280;38939;47.824;14.642;2022-10-16T11:39:28;97243.78;;;22.84;60.59
39769;BME280;38939;47.824;14.642;2022-10-16T11:40:31;97239.75;;;22.91;61.73
39769;BME280;38939;47.824;14.642;2022-10-16T11:42:51;97240.53;;;23.07;61.69
39769;BME280;38939;47.824;14.642;2022-10-16T11:46:21;97234.56;;;23.21;62.54
39769;BME280;38939;47.824;14.642;2022-10-16T11:47:40;97238.06;;;23.21;63.09
39769;BME280;38939;47.824;14.642;2022-10-16T11:49:03;97230.81;;;23.27;61.70
39769;BME280;38939;47.824;14.642;2022-10-16T11:51:37;97239.09;;;23.25;61.14
39769;BME280;38939;47.824;14.642;2022-10-16T11:52:52;97232.66;;;23.31;62.03
39769;BME280;38939;47.824;14.642;2022-10-16T11:56:24;97235.09;;;23.23;62.06
39769;BME280;38939;47.824;14.642;2022-10-16T11:57:27;97232.72;;;23.21;62.87
39769;BME280;38939;47.824;14.642;2022-10-16T11:59:36;97230.81;;;23.27;62.00
39769;BME280;38939;47.824;14.642;2022-10-16T12:00:56;97230.28;;;23.30;62.30
39769;BME280;38939;47.824;14.642;2022-10-16T12:03:41;97228.91;;;23.32;62.21
39769;BME280;38939;47.824;14.642;2022-10-16T12:04:51;97215.59;;;23.38;61.66
39769;BME280;38939;47.824;14.642;2022-10-16T12:06:01;97223.81;;;23.41;62.46
39769;BME280;38939;47.824;14.642;2022-10-16T12:07:07;97220.13;;;23.37;63.14
39769;BME280;38939;47.824;14.642;2022-10-16T12:08:11;97226.78;;;23.34;63.02
39769;BME280;38939;47.824;14.642;2022-10-16T12:10:24;97212.69;;;23.34;62.46
39769;BME280;38939;47.824;14.642;2022-10-16T12:13:39;97220.16;;;23.27;61.02
39769;BME280;38939;47.824;14.642;2022-10-16T12:14:41;97218.84;;;23.29;61.29